Portada
METAR-TAF:

METAR-TAF

Aeropuertos :

Ancona, Italia

latitud: 43-37N, longitud: 013-22E, altitud: 12 m

Observación

El informe se hizo hace 43 minutos, a las 00:20 UTC
Viento 2 kt con dirección variable
Temperatura 16°C
Humedad 77%
Presión 1011 hPa
Visibilidad 10 km o más

METAR: LIPY 030020Z AUTO VRB02KT 9999 NCD 16/12 Q1011

Hora: 03:03 (01:03 UTC)

Pronóstico

El informe se hizo hace 2 horas y 3 minutos, a las 23:00 UTC
Pronóstico válido del 03 a las 00 UTC al 03 a las 24 UTC
Viento 5 kt con dirección variable
Visibilidad 10 km o más
Escasas nubes a una altura de 3000 ft
Evolucionando progresivamente
del 03 a las 08 UTC al 03 a las 10 UTC
Viento 10 kt del este-noreste

TAF: LIPY 022300Z 0300/0324 VRB05KT 9999 FEW030 BECMG 0308/0310 06010KT

Observaciones y pronósticos meteorológicos de más de 4000 aeropuertos (mensajes METAR y TAF).

Los puntos amarillos y rojos representan las estaciones disponibles.

Ponga el ratón en el punto deseado para ver el nombre de la estación.

Haga clic para ver las observaciones y los pronósticos meteorológicos.

Para cambiar el mapa : haga clic en los botones verdes con una cruz de color negro para hacer un zoom, en el botón verde con un guión para alejar o en las flechas verdes para mapas adyacentes.


METAR-TAF: